sensor_id;sensor_type;location;lat;lon;timestamp;temperature;humidity
10883;DHT22;5494;51.796;10.952;2022-09-03T00:02:34;13.90;99.90
10883;DHT22;5494;51.796;10.952;2022-09-03T00:05:11;13.80;99.90
10883;DHT22;5494;51.796;10.952;2022-09-03T00:07:50;13.80;99.90
10883;DHT22;5494;51.796;10.952;2022-09-03T00:10:34;13.80;99.90
10883;DHT22;5494;51.796;10.952;2022-09-03T00:13:13;13.80;99.90
10883;DHT22;5494;51.796;10.952;2022-09-03T00:15:48;13.70;99.90
10883;DHT22;5494;51.796;10.952;2022-09-03T00:18:21;13.70;99.90
10883;DHT22;5494;51.796;10.952;2022-09-03T00:20:57;13.70;99.90
10883;DHT22;5494;51.796;10.952;2022-09-03T00:23:38;13.60;99.90
10883;DHT22;5494;51.796;10.952;2022-09-03T00:26:19;13.60;99.90
10883;DHT22;5494;51.796;10.952;2022-09-03T00:28:56;13.50;99.90
10883;DHT22;5494;51.796;10.952;2022-09-03T00:31:32;13.60;99.90
10883;DHT22;5494;51.796;10.952;2022-09-03T00:34:08;13.60;99.90
10883;DHT22;5494;51.796;10.952;2022-09-03T00:36:41;13.60;99.90
10883;DHT22;5494;51.796;10.952;2022-09-03T00:39:12;13.60;99.90
10883;DHT22;5494;51.796;10.952;2022-09-03T00:41:57;13.60;99.90
10883;DHT22;5494;51.796;10.952;2022-09-03T00:44:47;13.60;99.90
10883;DHT22;5494;51.796;10.952;2022-09-03T00:47:41;13.60;99.90
10883;DHT22;5494;51.796;10.952;2022-09-03T00:50:27;13.50;99.90
10883;DHT22;5494;51.796;10.952;2022-09-03T00:53:14;13.50;99.90
10883;DHT22;5494;51.796;10.952;2022-09-03T00:55:55;13.40;99.90
10883;DHT22;5494;51.796;10.952;2022-09-03T00:58:44;13.40;99.90
10883;DHT22;5494;51.796;10.952;2022-09-03T01:01:26;13.30;99.90
10883;DHT22;5494;51.796;10.952;2022-09-03T01:04:11;13.30;99.90
10883;DHT22;5494;51.796;10.952;2022-09-03T01:07:00;13.30;99.90
10883;DHT22;5494;51.796;10.952;2022-09-03T01:09:44;13.20;99.90
10883;DHT22;5494;51.796;10.952;2022-09-03T01:12:29;13.20;99.90
10883;DHT22;5494;51.796;10.952;2022-09-03T01:15:11;13.20;99.90
10883;DHT22;5494;51.796;10.952;2022-09-03T01:17:52;13.10;99.90
10883;DHT22;5494;51.796;10.952;2022-09-03T01:20:40;13.10;99.90
10883;DHT22;5494;51.796;10.952;2022-09-03T01:26:49;13.00;99.90
10883;DHT22;5494;51.796;10.952;2022-09-03T01:29:34;13.40;99.90
10883;DHT22;5494;51.796;10.952;2022-09-03T01:32:14;12.90;99.90
10883;DHT22;5494;51.796;10.952;2022-09-03T01:34:58;12.80;99.90
10883;DHT22;5494;51.796;10.952;2022-09-03T01:37:37;12.70;99.90
10883;DHT22;5494;51.796;10.952;2022-09-03T01:40:19;12.60;99.90
10883;DHT22;5494;51.796;10.952;2022-09-03T01:43:06;12.60;99.90
10883;DHT22;5494;51.796;10.952;2022-09-03T01:45:52;12.60;99.90
10883;DHT22;5494;51.796;10.952;2022-09-03T01:48:40;12.50;99.90
10883;DHT22;5494;51.796;10.952;2022-09-03T01:51:18;12.50;99.90
10883;DHT22;5494;51.796;10.952;2022-09-03T01:54:08;12.50;99.90
10883;DHT22;5494;51.796;10.952;2022-09-03T01:57:18;12.50;99.90
10883;DHT22;5494;51.796;10.952;2022-09-03T02:00:06;12.40;99.90
10883;DHT22;5494;51.796;10.952;2022-09-03T02:02:42;12.40;99.90
10883;DHT22;5494;51.796;10.952;2022-09-03T02:05:16;12.30;99.90
10883;DHT22;5494;51.796;10.952;2022-09-03T02:07:55;12.30;99.90
10883;DHT22;5494;51.796;10.952;2022-09-03T02:10:30;12.30;99.90
10883;DHT22;5494;51.796;10.952;2022-09-03T02:13:05;12.30;99.90
10883;DHT22;5494;51.796;10.952;2022-09-03T02:15:36;12.30;99.90
10883;DHT22;5494;51.796;10.952;2022-09-03T02:18:13;12.20;99.90
10883;DHT22;5494;51.796;10.952;2022-09-03T02:20:45;12.20;99.90
10883;DHT22;5494;51.796;10.952;2022-09-03T02:23:15;12.30;99.90
10883;DHT22;5494;51.796;10.952;2022-09-03T02:25:54;12.30;99.90
10883;DHT22;5494;51.796;10.952;2022-09-03T02:28:25;12.30;99.90
10883;DHT22;5494;51.796;10.952;2022-09-03T02:30:55;12.30;99.90
10883;DHT22;5494;51.796;10.952;2022-09-03T02:33:25;12.30;99.90
10883;DHT22;5494;51.796;10.952;2022-09-03T02:35:54;12.30;99.90
10883;DHT22;5494;51.796;10.952;2022-09-03T02:38:24;12.40;99.90
10883;DHT22;5494;51.796;10.952;2022-09-03T02:40:54;12.40;99.90
10883;DHT22;5494;51.796;10.952;2022-09-03T02:43:26;12.50;99.90
10883;DHT22;5494;51.796;10.952;2022-09-03T02:46:02;12.50;99.90
10883;DHT22;5494;51.796;10.952;2022-09-03T02:48:36;12.60;99.90
10883;DHT22;5494;51.796;10.952;2022-09-03T02:51:05;12.60;99.90
10883;DHT22;5494;51.796;10.952;2022-09-03T02:53:41;12.70;99.90
10883;DHT22;5494;51.796;10.952;2022-09-03T02:56:10;12.70;99.90
10883;DHT22;5494;51.796;10.952;2022-09-03T02:58:39;12.70;99.90
10883;DHT22;5494;51.796;10.952;2022-09-03T03:01:08;12.80;99.90
10883;DHT22;5494;51.796;10.952;2022-09-03T03:03:42;12.80;99.90
10883;DHT22;5494;51.796;10.952;2022-09-03T03:06:11;12.80;99.90
10883;DHT22;5494;51.796;10.952;2022-09-03T03:08:40;12.90;99.90
10883;DHT22;5494;51.796;10.952;2022-09-03T03:11:10;12.80;99.90
10883;DHT22;5494;51.796;10.952;2022-09-03T03:13:40;12.70;99.90
10883;DHT22;5494;51.796;10.952;2022-09-03T03:16:09;12.70;99.90
10883;DHT22;5494;51.796;10.952;2022-09-03T03:18:38;12.70;99.90
10883;DHT22;5494;51.796;10.952;2022-09-03T03:21:10;12.80;99.90
10883;DHT22;5494;51.796;10.952;2022-09-03T03:23:41;12.80;99.90
10883;DHT22;5494;51.796;10.952;2022-09-03T03:26:12;12.80;99.90
10883;DHT22;5494;51.796;10.952;2022-09-03T03:28:44;12.70;99.90
10883;DHT22;5494;51.796;10.952;2022-09-03T03:31:17;12.70;99.90
10883;DHT22;5494;51.796;10.952;2022-09-03T03:33:50;12.70;99.90
10883;DHT22;5494;51.796;10.952;2022-09-03T03:36:22;12.70;99.90
10883;DHT22;5494;51.796;10.952;2022-09-03T03:38:53;12.60;99.90
10883;DHT22;5494;51.796;10.952;2022-09-03T03:41:26;12.60;99.90
10883;DHT22;5494;51.796;10.952;2022-09-03T03:43:59;12.60;99.90
10883;DHT22;5494;51.796;10.952;2022-09-03T03:46:30;12.60;99.90
10883;DHT22;5494;51.796;10.952;2022-09-03T03:49:00;12.50;99.90
10883;DHT22;5494;51.796;10.952;2022-09-03T03:51:30;12.40;99.90
10883;DHT22;5494;51.796;10.952;2022-09-03T03:53:59;12.40;99.90
10883;DHT22;5494;51.796;10.952;2022-09-03T03:56:31;12.30;99.90
10883;DHT22;5494;51.796;10.952;2022-09-03T03:59:01;12.30;99.90
10883;DHT22;5494;51.796;10.952;2022-09-03T04:01:30;12.20;99.90
10883;DHT22;5494;51.796;10.952;2022-09-03T04:03:59;12.20;99.90
10883;DHT22;5494;51.796;10.952;2022-09-03T04:06:29;12.20;99.90
10883;DHT22;5494;51.796;10.952;2022-09-03T04:08:58;12.20;99.90
10883;DHT22;5494;51.796;10.952;2022-09-03T04:11:27;12.10;99.90
10883;DHT22;5494;51.796;10.952;2022-09-03T04:13:56;12.00;99.90
10883;DHT22;5494;51.796;10.952;2022-09-03T04:16:26;12.00;99.90
10883;DHT22;5494;51.796;10.952;2022-09-03T04:18:55;11.90;99.90
10883;DHT22;5494;51.796;10.952;2022-09-03T04:21:26;11.90;99.90
10883;DHT22;5494;51.796;10.952;2022-09-03T04:23:58;11.80;99.90
10883;DHT22;5494;51.796;10.952;2022-09-03T04:26:28;11.80;99.90
10883;DHT22;5494;51.796;10.952;2022-09-03T04:28:58;11.70;99.90
10883;DHT22;5494;51.796;10.952;2022-09-03T04:31:28;11.60;99.90
10883;DHT22;5494;51.796;10.952;2022-09-03T04:33:58;11.60;99.90
10883;DHT22;5494;51.796;10.952;2022-09-03T04:36:29;11.60;99.90
10883;DHT22;5494;51.796;10.952;2022-09-03T04:39:00;11.60;99.90
10883;DHT22;5494;51.796;10.952;2022-09-03T04:41:29;11.60;99.90
10883;DHT22;5494;51.796;10.952;2022-09-03T04:43:58;11.70;99.90
10883;DHT22;5494;51.796;10.952;2022-09-03T04:46:28;11.70;99.90
10883;DHT22;5494;51.796;10.952;2022-09-03T04:49:03;11.70;99.90
10883;DHT22;5494;51.796;10.952;2022-09-03T04:51:33;11.80;99.90
10883;DHT22;5494;51.796;10.952;2022-09-03T04:54:06;11.90;99.90
10883;DHT22;5494;51.796;10.952;2022-09-03T04:56:38;12.00;99.90
10883;DHT22;5494;51.796;10.952;2022-09-03T04:59:08;12.10;99.90
10883;DHT22;5494;51.796;10.952;2022-09-03T05:01:38;12.20;99.90
10883;DHT22;5494;51.796;10.952;2022-09-03T05:04:07;12.30;99.90
10883;DHT22;5494;51.796;10.952;2022-09-03T05:06:36;12.50;99.90
10883;DHT22;5494;51.796;10.952;2022-09-03T05:09:06;12.70;99.90
10883;DHT22;5494;51.796;10.952;2022-09-03T05:11:35;12.80;99.90
10883;DHT22;5494;51.796;10.952;2022-09-03T05:14:04;13.00;99.90
10883;DHT22;5494;51.796;10.952;2022-09-03T05:16:33;13.20;99.90
10883;DHT22;5494;51.796;10.952;2022-09-03T05:19:01;13.40;99.90
10883;DHT22;5494;51.796;10.952;2022-09-03T05:21:34;13.60;99.90
10883;DHT22;5494;51.796;10.952;2022-09-03T05:24:05;13.90;99.90
10883;DHT22;5494;51.796;10.952;2022-09-03T05:26:36;14.30;99.90
10883;DHT22;5494;51.796;10.952;2022-09-03T05:29:07;14.60;99.90
10883;DHT22;5494;51.796;10.952;2022-09-03T05:31:36;15.00;99.90
10883;DHT22;5494;51.796;10.952;2022-09-03T05:34:07;15.30;99.90
10883;DHT22;5494;51.796;10.952;2022-09-03T05:36:44;15.80;99.90
10883;DHT22;5494;51.796;10.952;2022-09-03T05:39:17;16.40;99.90
10883;DHT22;5494;51.796;10.952;2022-09-03T05:41:46;17.00;99.90
10883;DHT22;5494;51.796;10.952;2022-09-03T05:44:18;17.50;99.90
10883;DHT22;5494;51.796;10.952;2022-09-03T05:46:49;18.00;99.90
10883;DHT22;5494;51.796;10.952;2022-09-03T05:49:19;18.40;99.90
10883;DHT22;5494;51.796;10.952;2022-09-03T05:51:47;18.70;99.90
10883;DHT22;5494;51.796;10.952;2022-09-03T05:54:18;18.80;99.90
10883;DHT22;5494;51.796;10.952;2022-09-03T05:56:46;18.80;99.90
10883;DHT22;5494;51.796;10.952;2022-09-03T05:59:16;18.70;99.90
10883;DHT22;5494;51.796;10.952;2022-09-03T06:01:45;18.80;99.90
10883;DHT22;5494;51.796;10.952;2022-09-03T06:04:19;18.80;99.90
10883;DHT22;5494;51.796;10.952;2022-09-03T06:06:47;18.50;99.90
10883;DHT22;5494;51.796;10.952;2022-09-03T06:09:20;18.40;99.90
10883;DHT22;5494;51.796;10.952;2022-09-03T06:11:50;18.20;99.90
10883;DHT22;5494;51.796;10.952;2022-09-03T06:14:20;18.00;99.90
10883;DHT22;5494;51.796;10.952;2022-09-03T06:16:50;18.20;99.90
10883;DHT22;5494;51.796;10.952;2022-09-03T06:19:19;17.80;99.90
10883;DHT22;5494;51.796;10.952;2022-09-03T06:21:48;17.80;99.90
10883;DHT22;5494;51.796;10.952;2022-09-03T06:24:19;17.70;99.90
10883;DHT22;5494;51.796;10.952;2022-09-03T06:26:54;17.70;99.90
10883;DHT22;5494;51.796;10.952;2022-09-03T06:29:23;18.00;99.90
10883;DHT22;5494;51.796;10.952;2022-09-03T06:31:53;18.00;99.90
10883;DHT22;5494;51.796;10.952;2022-09-03T06:34:23;18.50;99.90
10883;DHT22;5494;51.796;10.952;2022-09-03T06:36:53;18.80;99.90
10883;DHT22;5494;51.796;10.952;2022-09-03T06:39:23;19.00;99.90
10883;DHT22;5494;51.796;10.952;2022-09-03T06:41:53;18.70;99.90
10883;DHT22;5494;51.796;10.952;2022-09-03T06:44:33;18.40;99.90
10883;DHT22;5494;51.796;10.952;2022-09-03T06:47:01;18.40;99.90
10883;DHT22;5494;51.796;10.952;2022-09-03T06:49:30;18.50;99.90
10883;DHT22;5494;51.796;10.952;2022-09-03T06:51:58;18.20;99.90
10883;DHT22;5494;51.796;10.952;2022-09-03T06:54:28;17.70;99.90
10883;DHT22;5494;51.796;10.952;2022-09-03T06:56:57;17.40;99.90
10883;DHT22;5494;51.796;10.952;2022-09-03T06:59:25;17.70;99.90
10883;DHT22;5494;51.796;10.952;2022-09-03T07:01:54;18.00;99.90
10883;DHT22;5494;51.796;10.952;2022-09-03T07:04:25;18.10;99.90
10883;DHT22;5494;51.796;10.952;2022-09-03T07:06:55;18.30;99.90
10883;DHT22;5494;51.796;10.952;2022-09-03T07:09:23;18.50;99.90
10883;DHT22;5494;51.796;10.952;2022-09-03T07:11:53;18.90;99.90
10883;DHT22;5494;51.796;10.952;2022-09-03T07:14:22;19.60;99.90
10883;DHT22;5494;51.796;10.952;2022-09-03T07:16:53;20.40;99.90
10883;DHT22;5494;51.796;10.952;2022-09-03T07:19:22;20.70;99.90
10883;DHT22;5494;51.796;10.952;2022-09-03T07:21:50;20.60;99.90
10883;DHT22;5494;51.796;10.952;2022-09-03T07:24:19;21.00;99.90
10883;DHT22;5494;51.796;10.952;2022-09-03T07:26:48;20.80;99.90
10883;DHT22;5494;51.796;10.952;2022-09-03T07:29:19;21.00;99.90
10883;DHT22;5494;51.796;10.952;2022-09-03T07:31:49;20.90;99.90
10883;DHT22;5494;51.796;10.952;2022-09-03T07:34:20;20.70;99.90
10883;DHT22;5494;51.796;10.952;2022-09-03T07:36:53;20.70;99.90
10883;DHT22;5494;51.796;10.952;2022-09-03T07:39:22;20.90;99.90
10883;DHT22;5494;51.796;10.952;2022-09-03T07:41:51;20.50;99.90
10883;DHT22;5494;51.796;10.952;2022-09-03T07:44:21;20.40;99.90
10883;DHT22;5494;51.796;10.952;2022-09-03T07:46:50;20.80;99.90
10883;DHT22;5494;51.796;10.952;2022-09-03T07:49:19;21.60;99.90
10883;DHT22;5494;51.796;10.952;2022-09-03T07:51:49;22.20;99.90
10883;DHT22;5494;51.796;10.952;2022-09-03T07:54:20;22.00;99.90
10883;DHT22;5494;51.796;10.952;2022-09-03T07:56:51;22.40;99.90
10883;DHT22;5494;51.796;10.952;2022-09-03T07:59:20;22.50;99.90
10883;DHT22;5494;51.796;10.952;2022-09-03T08:01:49;22.90;99.60
10883;DHT22;5494;51.796;10.952;2022-09-03T08:04:19;23.40;98.30
10883;DHT22;5494;51.796;10.952;2022-09-03T08:06:48;23.50;98.30
10883;DHT22;5494;51.796;10.952;2022-09-03T08:09:22;23.90;97.20
10883;DHT22;5494;51.796;10.952;2022-09-03T08:11:51;23.80;97.10
10883;DHT22;5494;51.796;10.952;2022-09-03T08:14:21;23.50;97.30
10883;DHT22;5494;51.796;10.952;2022-09-03T08:16:50;22.70;98.20
10883;DHT22;5494;51.796;10.952;2022-09-03T08:19:19;22.20;99.20
10883;DHT22;5494;51.796;10.952;2022-09-03T08:21:48;21.80;99.30
10883;DHT22;5494;51.796;10.952;2022-09-03T08:24:17;21.10;99.90
10883;DHT22;5494;51.796;10.952;2022-09-03T08:26:47;21.20;99.90
10883;DHT22;5494;51.796;10.952;2022-09-03T08:29:20;21.40;99.90
10883;DHT22;5494;51.796;10.952;2022-09-03T08:31:50;22.30;99.30
10883;DHT22;5494;51.796;10.952;2022-09-03T08:34:19;23.20;97.90
10883;DHT22;5494;51.796;10.952;2022-09-03T08:36:51;23.50;96.50
10883;DHT22;5494;51.796;10.952;2022-09-03T08:39:20;23.20;96.70
10883;DHT22;5494;51.796;10.952;2022-09-03T08:42:11;23.40;96.10
10883;DHT22;5494;51.796;10.952;2022-09-03T08:44:55;23.10;96.20
10883;DHT22;5494;51.796;10.952;2022-09-03T08:47:28;21.90;98.00
10883;DHT22;5494;51.796;10.952;2022-09-03T08:50:03;21.90;98.00
10883;DHT22;5494;51.796;10.952;2022-09-03T08:52:42;21.70;98.20
10883;DHT22;5494;51.796;10.952;2022-09-03T08:55:20;21.90;97.80
10883;DHT22;5494;51.796;10.952;2022-09-03T08:57:58;21.60;97.30
10883;DHT22;5494;51.796;10.952;2022-09-03T09:00:41;21.20;98.00
10883;DHT22;5494;51.796;10.952;2022-09-03T09:03:33;20.90;98.40
10883;DHT22;5494;51.796;10.952;2022-09-03T09:06:20;21.70;97.20
10883;DHT22;5494;51.796;10.952;2022-09-03T09:09:02;21.50;96.50
10883;DHT22;5494;51.796;10.952;2022-09-03T09:11:47;21.50;96.60
10883;DHT22;5494;51.796;10.952;2022-09-03T09:14:31;22.10;95.90
10883;DHT22;5494;51.796;10.952;2022-09-03T09:17:21;22.30;95.40
10883;DHT22;5494;51.796;10.952;2022-09-03T09:20:05;22.00;95.00
10883;DHT22;5494;51.796;10.952;2022-09-03T09:22:46;21.30;96.40
10883;DHT22;5494;51.796;10.952;2022-09-03T09:25:19;21.10;96.50
10883;DHT22;5494;51.796;10.952;2022-09-03T09:27:55;21.40;95.30
10883;DHT22;5494;51.796;10.952;2022-09-03T09:30:28;21.50;94.50
10883;DHT22;5494;51.796;10.952;2022-09-03T09:33:00;21.60;94.50
10883;DHT22;5494;51.796;10.952;2022-09-03T09:35:28;21.90;93.80
10883;DHT22;5494;51.796;10.952;2022-09-03T09:37:58;21.90;93.50
10883;DHT22;5494;51.796;10.952;2022-09-03T09:40:29;21.70;93.40
10883;DHT22;5494;51.796;10.952;2022-09-03T09:43:08;21.40;93.30
10883;DHT22;5494;51.796;10.952;2022-09-03T09:45:41;21.90;92.10
10883;DHT22;5494;51.796;10.952;2022-09-03T09:48:17;22.10;91.70
10883;DHT22;5494;51.796;10.952;2022-09-03T09:51:02;21.80;91.80
10883;DHT22;5494;51.796;10.952;2022-09-03T09:53:32;21.90;91.90
10883;DHT22;5494;51.796;10.952;2022-09-03T09:56:01;21.80;92.30
10883;DHT22;5494;51.796;10.952;2022-09-03T09:58:31;21.50;93.40
10883;DHT22;5494;51.796;10.952;2022-09-03T10:01:03;21.60;92.80
10883;DHT22;5494;51.796;10.952;2022-09-03T10:03:49;21.20;93.10
10883;DHT22;5494;51.796;10.952;2022-09-03T10:06:23;21.10;93.30
10883;DHT22;5494;51.796;10.952;2022-09-03T10:09:13;21.60;92.80
10883;DHT22;5494;51.796;10.952;2022-09-03T10:11:45;22.00;92.50
10883;DHT22;5494;51.796;10.952;2022-09-03T10:14:23;22.50;91.90
10883;DHT22;5494;51.796;10.952;2022-09-03T10:17:06;22.50;91.10
10883;DHT22;5494;51.796;10.952;2022-09-03T10:19:56;23.20;90.30
10883;DHT22;5494;51.796;10.952;2022-09-03T10:22:52;22.70;89.90
10883;DHT22;5494;51.796;10.952;2022-09-03T10:25:28;22.70;90.20
10883;DHT22;5494;51.796;10.952;2022-09-03T10:28:07;22.50;90.60
10883;DHT22;5494;51.796;10.952;2022-09-03T10:31:02;23.00;90.00
10883;DHT22;5494;51.796;10.952;2022-09-03T10:33:46;22.90;89.40
10883;DHT22;5494;51.796;10.952;2022-09-03T10:36:22;22.00;90.40
10883;DHT22;5494;51.796;10.952;2022-09-03T10:38:58;21.40;91.70
10883;DHT22;5494;51.796;10.952;2022-09-03T10:41:40;21.00;91.90
10883;DHT22;5494;51.796;10.952;2022-09-03T10:44:25;21.00;92.50
10883;DHT22;5494;51.796;10.952;2022-09-03T10:47:11;21.30;91.70
10883;DHT22;5494;51.796;10.952;2022-09-03T10:50:02;21.20;91.90
10883;DHT22;5494;51.796;10.952;2022-09-03T10:53:03;21.20;91.90
10883;DHT22;5494;51.796;10.952;2022-09-03T10:55:47;21.30;91.70
10883;DHT22;5494;51.796;10.952;2022-09-03T10:58:47;21.40;92.00
10883;DHT22;5494;51.796;10.952;2022-09-03T11:01:31;21.30;91.60
10883;DHT22;5494;51.796;10.952;2022-09-03T11:04:22;21.20;91.70
10883;DHT22;5494;51.796;10.952;2022-09-03T11:07:05;21.10;91.60
10883;DHT22;5494;51.796;10.952;2022-09-03T11:09:40;20.90;92.00
10883;DHT22;5494;51.796;10.952;2022-09-03T11:12:19;21.00;91.70
10883;DHT22;5494;51.796;10.952;2022-09-03T11:14:55;21.10;92.00
10883;DHT22;5494;51.796;10.952;2022-09-03T11:17:35;21.20;91.70
10883;DHT22;5494;51.796;10.952;2022-09-03T11:20:14;21.00;91.70
10883;DHT22;5494;51.796;10.952;2022-09-03T11:22:48;21.10;92.00
10883;DHT22;5494;51.796;10.952;2022-09-03T11:25:24;21.10;92.30
10883;DHT22;5494;51.796;10.952;2022-09-03T11:28:11;21.10;91.60
10883;DHT22;5494;51.796;10.952;2022-09-03T11:30:55;21.10;91.70
10883;DHT22;5494;51.796;10.952;2022-09-03T11:33:43;20.90;91.70
10883;DHT22;5494;51.796;10.952;2022-09-03T11:36:23;20.90;91.80
10883;DHT22;5494;51.796;10.952;2022-09-03T11:38:58;21.10;92.00
10883;DHT22;5494;51.796;10.952;2022-09-03T11:41:32;21.00;91.80
10883;DHT22;5494;51.796;10.952;2022-09-03T11:44:13;21.00;92.30
10883;DHT22;5494;51.796;10.952;2022-09-03T11:46:56;21.00;92.20
10883;DHT22;5494;51.796;10.952;2022-09-03T11:49:29;21.10;91.50
10883;DHT22;5494;51.796;10.952;2022-09-03T11:52:01;21.00;92.00
10883;DHT22;5494;51.796;10.952;2022-09-03T11:54:43;21.00;91.70
10883;DHT22;5494;51.796;10.952;2022-09-03T11:57:15;21.10;92.10
10883;DHT22;5494;51.796;10.952;2022-09-03T11:59:52;21.10;91.60
10883;DHT22;5494;51.796;10.952;2022-09-03T12:02:26;20.90;91.80
10883;DHT22;5494;51.796;10.952;2022-09-03T12:05:23;20.90;91.90
10883;DHT22;5494;51.796;10.952;2022-09-03T12:08:34;20.80;92.00
10883;DHT22;5494;51.796;10.952;2022-09-03T12:11:28;20.90;92.00
10883;DHT22;5494;51.796;10.952;2022-09-03T12:14:15;21.20;91.60
10883;DHT22;5494;51.796;10.952;2022-09-03T12:17:10;21.20;91.50
10883;DHT22;5494;51.796;10.952;2022-09-03T12:19:51;21.20;91.40
10883;DHT22;5494;51.796;10.952;2022-09-03T12:22:24;21.30;91.10
10883;DHT22;5494;51.796;10.952;2022-09-03T12:24:55;21.20;91.10
10883;DHT22;5494;51.796;10.952;2022-09-03T12:27:39;21.10;91.20
10883;DHT22;5494;51.796;10.952;2022-09-03T12:30:16;21.10;91.10
10883;DHT22;5494;51.796;10.952;2022-09-03T12:32:48;21.00;91.10
10883;DHT22;5494;51.796;10.952;2022-09-03T12:35:20;20.90;91.30
10883;DHT22;5494;51.796;10.952;2022-09-03T12:38:12;20.90;91.30
10883;DHT22;5494;51.796;10.952;2022-09-03T12:40:44;21.10;91.30
10883;DHT22;5494;51.796;10.952;2022-09-03T12:43:33;21.10;90.90
10883;DHT22;5494;51.796;10.952;2022-09-03T12:46:13;21.00;91.00
10883;DHT22;5494;51.796;10.952;2022-09-03T12:48:51;21.20;90.80
10883;DHT22;5494;51.796;10.952;2022-09-03T12:51:42;21.20;90.70
10883;DHT22;5494;51.796;10.952;2022-09-03T12:54:21;21.10;90.50
10883;DHT22;5494;51.796;10.952;2022-09-03T12:56:54;21.10;90.90
10883;DHT22;5494;51.796;10.952;2022-09-03T12:59:27;21.20;90.60
10883;DHT22;5494;51.796;10.952;2022-09-03T13:02:08;21.20;90.50
10883;DHT22;5494;51.796;10.952;2022-09-03T13:04:45;21.20;90.60
10883;DHT22;5494;51.796;10.952;2022-09-03T13:07:25;21.40;90.30
10883;DHT22;5494;51.796;10.952;2022-09-03T13:10:02;21.40;90.50
10883;DHT22;5494;51.796;10.952;2022-09-03T13:12:42;21.40;90.40
10883;DHT22;5494;51.796;10.952;2022-09-03T13:15:21;21.40;90.50
10883;DHT22;5494;51.796;10.952;2022-09-03T13:21:05;21.50;89.70
10883;DHT22;5494;51.796;10.952;2022-09-03T13:23:51;21.40;89.80
10883;DHT22;5494;51.796;10.952;2022-09-03T13:26:37;21.40;89.90
10883;DHT22;5494;51.796;10.952;2022-09-03T13:29:38;21.30;90.00
10883;DHT22;5494;51.796;10.952;2022-09-03T13:32:26;21.20;90.50
10883;DHT22;5494;51.796;10.952;2022-09-03T13:35:08;21.20;90.40
10883;DHT22;5494;51.796;10.952;2022-09-03T13:37:47;21.20;90.40
10883;DHT22;5494;51.796;10.952;2022-09-03T13:40:24;21.20;90.70
10883;DHT22;5494;51.796;10.952;2022-09-03T13:43:03;21.30;90.50
10883;DHT22;5494;51.796;10.952;2022-09-03T13:45:55;21.40;90.50
10883;DHT22;5494;51.796;10.952;2022-09-03T13:48:31;21.40;90.40
10883;DHT22;5494;51.796;10.952;2022-09-03T13:51:25;21.30;90.50
10883;DHT22;5494;51.796;10.952;2022-09-03T13:54:04;21.20;90.90
10883;DHT22;5494;51.796;10.952;2022-09-03T13:57:01;21.20;90.70
10883;DHT22;5494;51.796;10.952;2022-09-03T13:59:37;21.20;90.60
10883;DHT22;5494;51.796;10.952;2022-09-03T14:02:21;21.40;90.60
10883;DHT22;5494;51.796;10.952;2022-09-03T14:05:04;21.40;90.50
10883;DHT22;5494;51.796;10.952;2022-09-03T14:07:50;21.50;90.20
10883;DHT22;5494;51.796;10.952;2022-09-03T14:10:43;21.50;90.20
10883;DHT22;5494;51.796;10.952;2022-09-03T14:13:27;21.70;89.80
10883;DHT22;5494;51.796;10.952;2022-09-03T14:16:08;21.60;89.30
10883;DHT22;5494;51.796;10.952;2022-09-03T14:18:48;21.80;89.20
10883;DHT22;5494;51.796;10.952;2022-09-03T14:21:26;21.60;89.50
10883;DHT22;5494;51.796;10.952;2022-09-03T14:24:05;21.60;89.30
10883;DHT22;5494;51.796;10.952;2022-09-03T14:26:49;21.60;90.20
10883;DHT22;5494;51.796;10.952;2022-09-03T14:29:23;21.50;90.50
10883;DHT22;5494;51.796;10.952;2022-09-03T14:32:12;21.50;90.50
10883;DHT22;5494;51.796;10.952;2022-09-03T14:34:59;21.60;90.30
10883;DHT22;5494;51.796;10.952;2022-09-03T14:37:56;21.50;90.00
10883;DHT22;5494;51.796;10.952;2022-09-03T14:41:02;21.40;90.40
10883;DHT22;5494;51.796;10.952;2022-09-03T14:43:51;21.30;90.20
10883;DHT22;5494;51.796;10.952;2022-09-03T14:46:52;21.40;90.50
10883;DHT22;5494;51.796;10.952;2022-09-03T14:49:58;21.50;90.10
10883;DHT22;5494;51.796;10.952;2022-09-03T14:52:52;21.50;90.00
10883;DHT22;5494;51.796;10.952;2022-09-03T14:55:37;21.50;90.10
10883;DHT22;5494;51.796;10.952;2022-09-03T14:58:43;21.40;90.10
10883;DHT22;5494;51.796;10.952;2022-09-03T15:01:28;21.50;90.00
10883;DHT22;5494;51.796;10.952;2022-09-03T15:04:31;21.60;90.00
10883;DHT22;5494;51.796;10.952;2022-09-03T15:07:25;21.60;89.70
10883;DHT22;5494;51.796;10.952;2022-09-03T15:10:07;21.50;90.00
10883;DHT22;5494;51.796;10.952;2022-09-03T15:12:45;21.50;90.30
10883;DHT22;5494;51.796;10.952;2022-09-03T15:15:22;21.50;89.60
10883;DHT22;5494;51.796;10.952;2022-09-03T15:18:11;21.50;89.60
10883;DHT22;5494;51.796;10.952;2022-09-03T15:20:52;21.50;89.60
10883;DHT22;5494;51.796;10.952;2022-09-03T15:23:29;21.40;89.50
10883;DHT22;5494;51.796;10.952;2022-09-03T15:29:26;21.40;89.40
10883;DHT22;5494;51.796;10.952;2022-09-03T15:32:10;21.50;89.50
10883;DHT22;5494;51.796;10.952;2022-09-03T15:35:03;21.50;89.10
10883;DHT22;5494;51.796;10.952;2022-09-03T15:37:41;21.60;89.70
10883;DHT22;5494;51.796;10.952;2022-09-03T15:40:24;21.60;88.40
10883;DHT22;5494;51.796;10.952;2022-09-03T15:43:03;21.50;89.00
10883;DHT22;5494;51.796;10.952;2022-09-03T15:45:39;21.40;89.40
10883;DHT22;5494;51.796;10.952;2022-09-03T15:48:27;21.30;90.00
10883;DHT22;5494;51.796;10.952;2022-09-03T15:51:08;21.30;89.90
10883;DHT22;5494;51.796;10.952;2022-09-03T15:53:46;21.30;90.10
10883;DHT22;5494;51.796;10.952;2022-09-03T15:56:23;21.30;90.30
10883;DHT22;5494;51.796;10.952;2022-09-03T15:59:00;21.20;90.20
10883;DHT22;5494;51.796;10.952;2022-09-03T16:01:38;21.20;90.40
10883;DHT22;5494;51.796;10.952;2022-09-03T16:04:31;21.20;90.90
10883;DHT22;5494;51.796;10.952;2022-09-03T16:07:17;21.10;90.60
10883;DHT22;5494;51.796;10.952;2022-09-03T16:09:59;21.10;90.70
10883;DHT22;5494;51.796;10.952;2022-09-03T16:12:56;21.00;90.90
10883;DHT22;5494;51.796;10.952;2022-09-03T16:15:35;21.00;90.80
10883;DHT22;5494;51.796;10.952;2022-09-03T16:18:14;21.00;91.00
10883;DHT22;5494;51.796;10.952;2022-09-03T16:20:56;21.10;91.10
10883;DHT22;5494;51.796;10.952;2022-09-03T16:23:31;21.30;90.90
10883;DHT22;5494;51.796;10.952;2022-09-03T16:26:10;21.30;90.80
10883;DHT22;5494;51.796;10.952;2022-09-03T16:28:49;21.20;91.10
10883;DHT22;5494;51.796;10.952;2022-09-03T16:31:34;21.10;91.40
10883;DHT22;5494;51.796;10.952;2022-09-03T16:34:16;21.20;91.10
10883;DHT22;5494;51.796;10.952;2022-09-03T16:37:01;21.30;90.50
10883;DHT22;5494;51.796;10.952;2022-09-03T16:39:46;21.20;90.40
10883;DHT22;5494;51.796;10.952;2022-09-03T16:42:24;21.20;90.80
10883;DHT22;5494;51.796;10.952;2022-09-03T16:45:06;21.10;90.70